JES103 SCSE-SCDA
Flight info
| Callsign | JES103 |
|---|---|
| Flight time | N/A |
| Altitude | 34000 |
| Route | VUGUS UQ802 GAXIR GAXIR5B |
| Aircraft | A321/M-SDE3FGHIRWY/LB1 |
Departure
| Time | 2026-04-20 22:48 |
|---|---|
| Airport | La Florida Airport (SCSE) |
Arrival
| Time | N/A |
|---|---|
| Airport | Diego Aracena International Airport (SCDA) |
| Time | Latitude | Longitude | Altitude | Speed | Heading |
|---|---|---|---|---|---|
| 2026-04-20 22:14 | -29.91659 | -71.20340 | 483 ft | 0 kts | 206° |
| 2026-04-20 22:41 | -29.91662 | -71.20340 | 475 ft | 1 kts | 194° |
| 2026-04-20 22:41 | -29.91670 | -71.20334 | 477 ft | 2 kts | 146° |
| 2026-04-20 22:41 | -29.91667 | -71.20308 | 479 ft | 4 kts | 51° |
| 2026-04-20 22:41 | -29.91655 | -71.20305 | 480 ft | 0 kts | 5° |
| 2026-04-20 22:42 | -29.91654 | -71.20305 | 480 ft | 1 kts | 5° |
| 2026-04-20 22:42 | -29.91645 | -71.20304 | 476 ft | 2 kts | 4° |
| 2026-04-20 22:42 | -29.91626 | -71.20303 | 477 ft | 3 kts | 2° |
| 2026-04-20 22:42 | -29.91599 | -71.20299 | 480 ft | 4 kts | 13° |
| 2026-04-20 22:43 | -29.91567 | -71.20287 | 475 ft | 5 kts | 20° |
| 2026-04-20 22:43 | -29.91534 | -71.20266 | 475 ft | 6 kts | 44° |
| 2026-04-20 22:43 | -29.91530 | -71.20219 | 482 ft | 7 kts | 108° |
| 2026-04-20 22:43 | -29.91554 | -71.20160 | 478 ft | 10 kts | 116° |
| 2026-04-20 22:44 | -29.91588 | -71.20080 | 473 ft | 12 kts | 116° |
| 2026-04-20 22:44 | -29.91630 | -71.19984 | 479 ft | 14 kts | 117° |
| 2026-04-20 22:44 | -29.91671 | -71.19894 | 474 ft | 12 kts | 115° |
| 2026-04-20 22:44 | -29.91705 | -71.19811 | 473 ft | 11 kts | 115° |
| 2026-04-20 22:45 | -29.91740 | -71.19730 | 476 ft | 13 kts | 117° |
| 2026-04-20 22:45 | -29.91784 | -71.19631 | 475 ft | 15 kts | 116° |
| 2026-04-20 22:45 | -29.91833 | -71.19512 | 476 ft | 18 kts | 116° |
| 2026-04-20 22:45 | -29.91892 | -71.19381 | 475 ft | 19 kts | 117° |
| 2026-04-20 22:46 | -29.91953 | -71.19237 | 478 ft | 21 kts | 115° |
| 2026-04-20 22:46 | -29.92013 | -71.19135 | 479 ft | 13 kts | 142° |
| 2026-04-20 22:46 | -29.92035 | -71.19072 | 479 ft | 5 kts | 24° |
| 2026-04-20 22:46 | -29.92011 | -71.19097 | 473 ft | 6 kts | 300° |
| 2026-04-20 22:47 | -29.92003 | -71.19116 | 479 ft | 0 kts | 295° |
| 2026-04-20 22:47 | -29.91888 | -71.19390 | 480 ft | 78 kts | 296° |
| 2026-04-20 22:48 | -29.91539 | -71.20207 | 476 ft | 148 kts | 296° |
| 2026-04-20 22:48 | -29.91009 | -71.21421 | 752 ft | 181 kts | 297° |
| 2026-04-20 22:48 | -29.90420 | -71.22748 | 1401 ft | 190 kts | 296° |
| 2026-04-20 22:48 | -29.89815 | -71.24123 | 2065 ft | 193 kts | 297° |
| 2026-04-20 22:49 | -29.89006 | -71.25325 | 2582 ft | 188 kts | 320° |
| 2026-04-20 22:49 | -29.87856 | -71.25977 | 3095 ft | 184 kts | 349° |
| 2026-04-20 22:49 | -29.86592 | -71.25907 | 3575 ft | 181 kts | 14° |
| 2026-04-20 22:49 | -29.85407 | -71.25463 | 4065 ft | 177 kts | 20° |
| 2026-04-20 22:50 | -29.84256 | -71.24973 | 4539 ft | 175 kts | 20° |
| 2026-04-20 22:50 | -29.83085 | -71.24486 | 4811 ft | 186 kts | 18° |
| 2026-04-20 22:50 | -29.81794 | -71.24012 | 4944 ft | 202 kts | 16° |
| 2026-04-20 22:50 | -29.80394 | -71.23552 | 5073 ft | 217 kts | 15° |
| 2026-04-20 22:51 | -29.78895 | -71.23104 | 5197 ft | 234 kts | 13° |
| 2026-04-20 22:51 | -29.77233 | -71.22642 | 5314 ft | 258 kts | 13° |
| 2026-04-20 22:51 | -29.75429 | -71.22174 | 5755 ft | 270 kts | 12° |
| 2026-04-20 22:51 | -29.73580 | -71.21716 | 6483 ft | 271 kts | 11° |
| 2026-04-20 22:52 | -29.71736 | -71.21275 | 7234 ft | 271 kts | 11° |
| 2026-04-20 22:52 | -29.69886 | -71.20839 | 7943 ft | 271 kts | 11° |
| 2026-04-20 22:52 | -29.68032 | -71.20407 | 8626 ft | 272 kts | 10° |
| 2026-04-20 22:52 | -29.66196 | -71.19982 | 9302 ft | 273 kts | 10° |
| 2026-04-20 22:53 | -29.64306 | -71.19546 | 9987 ft | 274 kts | 10° |
| 2026-04-20 22:53 | -29.62428 | -71.19114 | 10352 ft | 288 kts | 10° |
| 2026-04-20 22:53 | -29.60395 | -71.18648 | 10479 ft | 308 kts | 10° |
| 2026-04-20 22:53 | -29.58226 | -71.18150 | 10645 ft | 326 kts | 10° |
| 2026-04-20 22:54 | -29.55973 | -71.17628 | 11092 ft | 333 kts | 10° |
| 2026-04-20 22:54 | -29.53689 | -71.17099 | 11682 ft | 336 kts | 9° |
| 2026-04-20 22:54 | -29.51388 | -71.16564 | 12287 ft | 339 kts | 9° |
| 2026-04-20 22:54 | -29.49062 | -71.16025 | 12877 ft | 342 kts | 9° |
| 2026-04-20 22:55 | -29.46715 | -71.15490 | 13477 ft | 345 kts | 9° |
| 2026-04-20 22:55 | -29.44345 | -71.14952 | 14058 ft | 348 kts | 9° |
| 2026-04-20 22:55 | -29.41951 | -71.14405 | 14575 ft | 352 kts | 8° |
| 2026-04-20 22:55 | -29.39536 | -71.13853 | 15102 ft | 355 kts | 8° |
| 2026-04-20 22:56 | -29.37102 | -71.13295 | 15618 ft | 358 kts | 8° |
| 2026-04-20 22:56 | -29.34678 | -71.12737 | 16128 ft | 362 kts | 8° |
| 2026-04-20 22:56 | -29.32169 | -71.12159 | 16622 ft | 365 kts | 8° |
| 2026-04-20 22:56 | -29.29673 | -71.11584 | 17109 ft | 368 kts | 8° |
| 2026-04-20 22:57 | -29.27152 | -71.11004 | 17585 ft | 371 kts | 7° |
| 2026-04-20 22:57 | -29.24612 | -71.10420 | 18026 ft | 375 kts | 7° |
| 2026-04-20 22:57 | -29.22043 | -71.09827 | 18479 ft | 378 kts | 7° |
| 2026-04-20 22:57 | -29.19490 | -71.09239 | 18887 ft | 381 kts | 7° |
| 2026-04-20 22:58 | -29.16883 | -71.08641 | 19314 ft | 383 kts | 7° |
| 2026-04-20 22:58 | -29.14255 | -71.08041 | 19719 ft | 385 kts | 7° |
| 2026-04-20 22:58 | -29.11612 | -71.07439 | 20126 ft | 388 kts | 6° |
| 2026-04-20 22:58 | -29.08958 | -71.06835 | 20552 ft | 390 kts | 6° |
| 2026-04-20 22:59 | -29.06291 | -71.06224 | 20945 ft | 392 kts | 6° |
| 2026-04-20 22:59 | -29.03608 | -71.05608 | 21330 ft | 394 kts | 6° |
| 2026-04-20 22:59 | -29.00906 | -71.04990 | 21722 ft | 396 kts | 6° |
| 2026-04-20 22:59 | -28.98196 | -71.04371 | 22112 ft | 399 kts | 6° |
| 2026-04-20 23:00 | -28.95465 | -71.03746 | 22504 ft | 401 kts | 6° |
| 2026-04-20 23:00 | -28.92721 | -71.03119 | 22861 ft | 403 kts | 6° |
| 2026-04-20 23:00 | -28.89954 | -71.02489 | 23214 ft | 406 kts | 6° |
| 2026-04-20 23:00 | -28.87181 | -71.01856 | 23569 ft | 408 kts | 5° |
| 2026-04-20 23:01 | -28.84422 | -71.01223 | 23882 ft | 410 kts | 6° |
| 2026-04-20 23:01 | -28.81621 | -71.00578 | 24167 ft | 411 kts | 6° |
| 2026-04-20 23:01 | -28.78808 | -70.99938 | 24455 ft | 414 kts | 5° |
| 2026-04-20 23:01 | -28.75978 | -70.99297 | 24786 ft | 415 kts | 5° |
| 2026-04-20 23:02 | -28.73138 | -70.98655 | 25106 ft | 417 kts | 6° |
| 2026-04-20 23:02 | -28.70285 | -70.98007 | 25429 ft | 419 kts | 6° |
| 2026-04-20 23:02 | -28.67423 | -70.97355 | 25735 ft | 420 kts | 6° |
| 2026-04-20 23:02 | -28.64550 | -70.96705 | 26059 ft | 422 kts | 6° |
| 2026-04-20 23:03 | -28.61660 | -70.96049 | 26374 ft | 424 kts | 6° |
| 2026-04-20 23:03 | -28.58763 | -70.95392 | 26682 ft | 425 kts | 6° |
| 2026-04-20 23:03 | -28.55852 | -70.94729 | 26964 ft | 427 kts | 6° |
| 2026-04-20 23:03 | -28.52933 | -70.94061 | 27251 ft | 429 kts | 6° |
| 2026-04-20 23:04 | -28.49992 | -70.93419 | 27522 ft | 429 kts | 2° |
| 2026-04-20 23:04 | -28.47032 | -70.93073 | 27786 ft | 428 kts | 360° |
| 2026-04-20 23:04 | -28.44055 | -70.92764 | 28043 ft | 430 kts | 360° |
| 2026-04-20 23:04 | -28.41070 | -70.92458 | 28303 ft | 432 kts | 360° |
| 2026-04-20 23:05 | -28.38072 | -70.92153 | 28569 ft | 433 kts | 360° |
| 2026-04-20 23:05 | -28.35061 | -70.91846 | 28823 ft | 435 kts | 360° |
| 2026-04-20 23:05 | -28.32040 | -70.91535 | 29070 ft | 436 kts | 360° |
| 2026-04-20 23:05 | -28.29009 | -70.91221 | 29311 ft | 438 kts | 0° |
| 2026-04-20 23:06 | -28.26004 | -70.90907 | 29542 ft | 440 kts | 0° |
| 2026-04-20 23:06 | -28.22947 | -70.90580 | 29781 ft | 442 kts | 0° |
| 2026-04-20 23:06 | -28.19881 | -70.90250 | 30009 ft | 444 kts | 0° |
| 2026-04-20 23:06 | -28.16800 | -70.89918 | 30307 ft | 444 kts | 0° |
| 2026-04-20 23:07 | -28.13723 | -70.89587 | 30595 ft | 443 kts | 360° |
| 2026-04-20 23:07 | -28.10651 | -70.89260 | 30889 ft | 442 kts | 360° |
| 2026-04-20 23:07 | -28.07583 | -70.88935 | 31177 ft | 442 kts | 360° |
| 2026-04-20 23:07 | -28.04529 | -70.88610 | 31471 ft | 441 kts | 360° |
| 2026-04-20 23:08 | -28.01474 | -70.88282 | 31769 ft | 440 kts | 360° |
| 2026-04-20 23:08 | -27.98426 | -70.87955 | 32070 ft | 439 kts | 359° |
| 2026-04-20 23:08 | -27.95379 | -70.87629 | 32350 ft | 439 kts | 359° |
| 2026-04-20 23:08 | -27.92337 | -70.87305 | 32634 ft | 438 kts | 359° |
| 2026-04-20 23:09 | -27.89339 | -70.86986 | 32911 ft | 438 kts | 359° |
| 2026-04-20 23:09 | -27.86306 | -70.86662 | 33177 ft | 437 kts | 359° |
| 2026-04-20 23:09 | -27.83280 | -70.86342 | 33457 ft | 437 kts | 359° |
| 2026-04-20 23:09 | -27.80257 | -70.86023 | 33759 ft | 436 kts | 359° |
| 2026-04-20 23:10 | -27.77238 | -70.85705 | 34033 ft | 436 kts | 359° |
| 2026-04-20 23:10 | -27.74228 | -70.85387 | 34105 ft | 432 kts | 359° |
| 2026-04-20 23:10 | -27.68273 | -70.84752 | 34116 ft | 428 kts | 359° |
| 2026-04-20 23:11 | -27.62348 | -70.84127 | 34116 ft | 427 kts | 359° |
| 2026-04-20 23:11 | -27.57424 | -70.83617 | 34116 ft | 427 kts | 359° |
| 2026-04-20 23:12 | -27.51496 | -70.82996 | 34115 ft | 427 kts | 359° |
| 2026-04-20 23:12 | -27.45577 | -70.82363 | 34107 ft | 427 kts | 359° |
| 2026-04-20 23:13 | -27.39695 | -70.81745 | 34103 ft | 427 kts | 359° |
| 2026-04-20 23:13 | -27.33780 | -70.81126 | 34097 ft | 427 kts | 359° |
| 2026-04-20 23:14 | -27.27864 | -70.80506 | 34102 ft | 427 kts | 359° |
| 2026-04-20 23:14 | -27.21949 | -70.79893 | 34096 ft | 426 kts | 358° |
| 2026-04-20 23:15 | -27.16041 | -70.79279 | 34093 ft | 426 kts | 358° |
| 2026-04-20 23:15 | -27.10129 | -70.78655 | 34093 ft | 427 kts | 358° |
| 2026-04-20 23:16 | -27.04218 | -70.78037 | 34093 ft | 427 kts | 358° |
| 2026-04-20 23:16 | -26.98341 | -70.77426 | 34091 ft | 427 kts | 358° |
| 2026-04-20 23:17 | -26.92416 | -70.76809 | 34094 ft | 427 kts | 358° |
| 2026-04-20 23:17 | -26.86491 | -70.76193 | 34088 ft | 427 kts | 358° |
| 2026-04-20 23:18 | -26.80573 | -70.75573 | 34097 ft | 427 kts | 358° |
| 2026-04-20 23:18 | -26.74644 | -70.74953 | 34097 ft | 427 kts | 358° |
| 2026-04-20 23:19 | -26.68754 | -70.74355 | 34093 ft | 430 kts | 354° |
| 2026-04-20 23:19 | -26.62750 | -70.73610 | 34100 ft | 437 kts | 357° |
| 2026-04-20 23:20 | -26.56723 | -70.72525 | 34111 ft | 439 kts | 359° |
| 2026-04-20 23:20 | -26.50707 | -70.71394 | 34114 ft | 438 kts | 358° |
| 2026-04-20 23:21 | -26.44702 | -70.70347 | 34113 ft | 435 kts | 357° |
| 2026-04-20 23:21 | -26.38730 | -70.69648 | 34109 ft | 429 kts | 353° |
| 2026-04-20 23:22 | -26.32810 | -70.69232 | 34099 ft | 428 kts | 352° |
| 2026-04-20 23:22 | -26.26866 | -70.68803 | 34096 ft | 428 kts | 353° |
| 2026-04-20 23:23 | -26.20915 | -70.68298 | 34090 ft | 429 kts | 353° |
| 2026-04-20 23:23 | -26.14961 | -70.67753 | 34088 ft | 429 kts | 353° |
| 2026-04-20 23:24 | -26.09009 | -70.67219 | 34086 ft | 429 kts | 353° |
| 2026-04-20 23:24 | -26.03060 | -70.66695 | 34080 ft | 429 kts | 353° |
| 2026-04-20 23:25 | -25.97111 | -70.66172 | 34079 ft | 429 kts | 353° |
| 2026-04-20 23:25 | -25.91156 | -70.65661 | 34082 ft | 429 kts | 353° |
| 2026-04-20 23:26 | -25.85234 | -70.65160 | 34081 ft | 429 kts | 353° |
| 2026-04-20 23:26 | -25.79276 | -70.64643 | 34077 ft | 430 kts | 353° |
| 2026-04-20 23:27 | -25.73311 | -70.64122 | 34075 ft | 430 kts | 353° |
| 2026-04-20 23:27 | -25.67352 | -70.63605 | 34071 ft | 429 kts | 353° |
| 2026-04-20 23:28 | -25.61388 | -70.63081 | 34066 ft | 430 kts | 353° |
| 2026-04-20 23:28 | -25.55424 | -70.62569 | 34068 ft | 430 kts | 353° |
| 2026-04-20 23:29 | -25.49449 | -70.62049 | 34058 ft | 430 kts | 353° |
| 2026-04-20 23:29 | -25.43475 | -70.61525 | 34062 ft | 431 kts | 353° |
| 2026-04-20 23:30 | -25.37499 | -70.61008 | 34065 ft | 431 kts | 353° |
| 2026-04-20 23:30 | -25.31515 | -70.60498 | 34067 ft | 432 kts | 353° |
| 2026-04-20 23:31 | -25.25557 | -70.59978 | 34068 ft | 432 kts | 353° |
| 2026-04-20 23:31 | -25.19560 | -70.59454 | 34067 ft | 432 kts | 353° |
| 2026-04-20 23:32 | -25.13555 | -70.58941 | 34065 ft | 433 kts | 353° |
| 2026-04-20 23:32 | -25.07546 | -70.58428 | 34067 ft | 433 kts | 353° |
| 2026-04-20 23:33 | -25.01537 | -70.57917 | 34071 ft | 433 kts | 353° |
| 2026-04-20 23:33 | -24.95509 | -70.57403 | 34063 ft | 434 kts | 353° |
| 2026-04-20 23:34 | -24.89519 | -70.56879 | 34065 ft | 435 kts | 354° |
| 2026-04-20 23:34 | -24.83481 | -70.56358 | 34067 ft | 435 kts | 354° |
| 2026-04-20 23:35 | -24.74448 | -70.55903 | 34065 ft | 429 kts | 349° |
| 2026-04-20 23:36 | -24.68482 | -70.56025 | 34065 ft | 429 kts | 348° |
| 2026-04-20 23:36 | -24.62508 | -70.56158 | 34060 ft | 429 kts | 349° |
| 2026-04-20 23:37 | -24.56518 | -70.56221 | 34060 ft | 430 kts | 349° |
| 2026-04-20 23:37 | -24.50515 | -70.56248 | 34057 ft | 432 kts | 349° |
| 2026-04-20 23:38 | -24.44554 | -70.56267 | 34056 ft | 432 kts | 349° |
| 2026-04-20 23:38 | -24.38544 | -70.56303 | 34058 ft | 432 kts | 349° |
| 2026-04-20 23:39 | -24.32527 | -70.56346 | 34055 ft | 432 kts | 350° |
| 2026-04-20 23:39 | -24.26503 | -70.56381 | 34055 ft | 433 kts | 350° |
| 2026-04-20 23:40 | -24.20478 | -70.56415 | 34046 ft | 433 kts | 350° |
| 2026-04-20 23:40 | -24.14445 | -70.56456 | 34053 ft | 434 kts | 350° |
| 2026-04-20 23:41 | -24.08405 | -70.56496 | 34048 ft | 434 kts | 350° |
| 2026-04-20 23:41 | -24.02366 | -70.56529 | 34048 ft | 434 kts | 350° |
| 2026-04-20 23:42 | -23.96318 | -70.56564 | 34048 ft | 434 kts | 350° |
| 2026-04-20 23:42 | -23.90267 | -70.56601 | 34050 ft | 435 kts | 350° |
| 2026-04-20 23:43 | -23.84214 | -70.56634 | 34045 ft | 435 kts | 351° |
| 2026-04-20 23:43 | -23.78199 | -70.56669 | 34046 ft | 435 kts | 351° |
| 2026-04-20 23:44 | -23.72132 | -70.56656 | 34042 ft | 436 kts | 351° |
| 2026-04-20 23:44 | -23.66047 | -70.56613 | 34043 ft | 436 kts | 351° |
| 2026-04-20 23:45 | -23.59971 | -70.56574 | 34041 ft | 436 kts | 351° |
| 2026-04-20 23:45 | -23.53896 | -70.56548 | 34041 ft | 436 kts | 352° |
| 2026-04-20 23:46 | -23.47857 | -70.56524 | 34036 ft | 436 kts | 351° |
| 2026-04-20 23:46 | -23.41779 | -70.56503 | 34040 ft | 437 kts | 352° |
| 2026-04-20 23:47 | -23.35697 | -70.56482 | 34044 ft | 437 kts | 352° |
| 2026-04-20 23:47 | -23.29620 | -70.56459 | 34038 ft | 437 kts | 352° |
| 2026-04-20 23:48 | -23.23543 | -70.56433 | 34038 ft | 437 kts | 352° |
| 2026-04-20 23:48 | -23.17454 | -70.56399 | 34037 ft | 437 kts | 352° |
| 2026-04-20 23:49 | -23.11366 | -70.56368 | 34043 ft | 437 kts | 352° |
| 2026-04-20 23:49 | -23.05325 | -70.56350 | 34039 ft | 437 kts | 352° |
| 2026-04-20 23:50 | -22.99244 | -70.56328 | 34037 ft | 437 kts | 352° |
| 2026-04-20 23:50 | -22.93156 | -70.56299 | 34037 ft | 437 kts | 352° |
| 2026-04-20 23:51 | -22.87070 | -70.56265 | 34036 ft | 438 kts | 353° |
| 2026-04-20 23:51 | -22.80971 | -70.56162 | 34036 ft | 439 kts | 353° |
| 2026-04-20 23:52 | -22.74860 | -70.56016 | 34033 ft | 439 kts | 353° |
| 2026-04-20 23:52 | -22.68754 | -70.55889 | 34037 ft | 439 kts | 353° |
| 2026-04-20 23:53 | -22.62641 | -70.55777 | 34035 ft | 439 kts | 353° |
| 2026-04-20 23:53 | -22.56532 | -70.55665 | 34033 ft | 439 kts | 353° |
| 2026-04-20 23:54 | -22.50413 | -70.55544 | 34032 ft | 440 kts | 353° |
| 2026-04-20 23:54 | -22.44291 | -70.55423 | 34032 ft | 440 kts | 353° |
| 2026-04-20 23:55 | -22.38167 | -70.55306 | 34033 ft | 440 kts | 354° |
| 2026-04-20 23:55 | -22.32045 | -70.55194 | 34036 ft | 440 kts | 354° |
| 2026-04-20 23:56 | -22.25954 | -70.55077 | 34032 ft | 440 kts | 354° |
| 2026-04-20 23:56 | -22.19824 | -70.54963 | 34038 ft | 441 kts | 354° |
| 2026-04-20 23:57 | -22.13692 | -70.54851 | 34029 ft | 441 kts | 354° |
| 2026-04-20 23:57 | -22.07528 | -70.54748 | 34019 ft | 444 kts | 354° |
| 2026-04-20 23:58 | -22.02376 | -70.54663 | 34018 ft | 446 kts | 354° |
| 2026-04-20 23:58 | -21.95103 | -70.54512 | 34018 ft | 448 kts | 354° |
| 2026-04-20 23:59 | -21.88862 | -70.54303 | 34020 ft | 453 kts | 0° |
| 2026-04-20 23:59 | -21.83646 | -70.53358 | 34024 ft | 457 kts | 3° |
| 2026-04-21 00:00 | -21.77375 | -70.52177 | 34027 ft | 458 kts | 3° |
| 2026-04-21 00:00 | -21.71099 | -70.51002 | 34030 ft | 458 kts | 3° |
| 2026-04-21 00:01 | -21.64861 | -70.49839 | 34031 ft | 458 kts | 3° |
| 2026-04-21 00:01 | -21.58572 | -70.48668 | 34035 ft | 458 kts | 3° |
| 2026-04-21 00:02 | -21.52290 | -70.47491 | 34037 ft | 458 kts | 4° |
| 2026-04-21 00:02 | -21.46009 | -70.46320 | 34033 ft | 458 kts | 3° |
| 2026-04-21 00:03 | -21.39728 | -70.45155 | 34037 ft | 458 kts | 4° |
| 2026-04-21 00:03 | -21.33446 | -70.43987 | 34044 ft | 458 kts | 4° |
| 2026-04-21 00:04 | -21.27168 | -70.42814 | 34043 ft | 458 kts | 4° |
| 2026-04-21 00:04 | -21.20886 | -70.41651 | 34044 ft | 458 kts | 4° |
| 2026-04-21 00:05 | -21.14613 | -70.40491 | 34045 ft | 457 kts | 4° |
| 2026-04-21 00:05 | -21.08342 | -70.39328 | 34041 ft | 457 kts | 4° |
| 2026-04-21 00:06 | -21.02110 | -70.38171 | 34043 ft | 457 kts | 4° |
| 2026-04-21 00:06 | -20.95829 | -70.37008 | 34047 ft | 457 kts | 4° |
| 2026-04-21 00:07 | -20.89560 | -70.35853 | 34047 ft | 457 kts | 4° |
| 2026-04-21 00:07 | -20.83322 | -70.34469 | 34042 ft | 462 kts | 12° |
| 2026-04-21 00:08 | -20.77214 | -70.32259 | 34036 ft | 464 kts | 14° |
| 2026-04-21 00:08 | -20.71138 | -70.29891 | 34030 ft | 464 kts | 14° |
| 2026-04-21 00:09 | -20.65065 | -70.27551 | 34028 ft | 464 kts | 14° |
| 2026-04-21 00:09 | -20.58930 | -70.26027 | 34021 ft | 449 kts | 357° |
| 2026-04-21 00:10 | -20.52756 | -70.25959 | 34024 ft | 430 kts | 354° |
| 2026-04-21 00:10 | -20.49819 | -70.26003 | 34028 ft | 414 kts | 354° |
| 2026-04-21 00:10 | -20.46978 | -70.26045 | 34038 ft | 404 kts | 356° |
| 2026-04-21 00:10 | -20.44199 | -70.25502 | 34029 ft | 414 kts | 19° |
| 2026-04-21 00:11 | -20.41753 | -70.23818 | 34031 ft | 427 kts | 41° |
| 2026-04-21 00:11 | -20.40036 | -70.21237 | 34044 ft | 439 kts | 64° |
| 2026-04-21 00:11 | -20.39294 | -70.18072 | 34044 ft | 446 kts | 87° |
| 2026-04-21 00:11 | -20.39676 | -70.14789 | 34036 ft | 449 kts | 110° |
| 2026-04-21 00:12 | -20.41133 | -70.11874 | 34036 ft | 446 kts | 133° |
| 2026-04-21 00:12 | -20.43447 | -70.09740 | 34034 ft | 438 kts | 156° |
| 2026-04-21 00:12 | -20.46270 | -70.08679 | 34028 ft | 426 kts | 179° |
| 2026-04-21 00:12 | -20.49151 | -70.08819 | 34024 ft | 410 kts | 202° |
| 2026-04-21 00:13 | -20.51814 | -70.09845 | 34035 ft | 407 kts | 207° |
| 2026-04-21 00:13 | -20.56954 | -70.12313 | 34013 ft | 396 kts | 225° |
| 2026-04-21 00:13 | -20.58720 | -70.14465 | 34038 ft | 381 kts | 248° |
| 2026-04-21 00:14 | -20.59518 | -70.17104 | 34034 ft | 373 kts | 266° |
| 2026-04-21 00:14 | -20.59588 | -70.22615 | 34025 ft | 374 kts | 265° |
| 2026-04-21 00:15 | -20.60918 | -70.28013 | 34033 ft | 379 kts | 254° |
| 2026-04-21 00:15 | -20.62628 | -70.33287 | 34037 ft | 378 kts | 256° |
| 2026-04-21 00:16 | -20.64378 | -70.38566 | 34040 ft | 382 kts | 243° |
| 2026-04-21 00:16 | -20.66015 | -70.40824 | 34048 ft | 391 kts | 227° |
| 2026-04-21 00:16 | -20.68270 | -70.42499 | 34048 ft | 402 kts | 210° |
| 2026-04-21 00:16 | -20.70988 | -70.43362 | 34049 ft | 416 kts | 191° |
| 2026-04-21 00:17 | -20.73908 | -70.43152 | 34052 ft | 431 kts | 167° |
| 2026-04-21 00:17 | -20.76638 | -70.41752 | 34054 ft | 443 kts | 144° |
| 2026-04-21 00:17 | -20.78756 | -70.39337 | 34055 ft | 451 kts | 121° |
| 2026-04-21 00:17 | -20.79942 | -70.36242 | 34058 ft | 453 kts | 98° |
| 2026-04-21 00:18 | -20.80020 | -70.32905 | 34056 ft | 448 kts | 75° |
| 2026-04-21 00:18 | -20.78990 | -70.29810 | 34052 ft | 438 kts | 52° |
| 2026-04-21 00:18 | -20.77034 | -70.27409 | 34052 ft | 423 kts | 29° |
| 2026-04-21 00:18 | -20.74477 | -70.26027 | 34044 ft | 406 kts | 6° |
| 2026-04-21 00:19 | -20.71722 | -70.25729 | 34048 ft | 397 kts | 354° |
| 2026-04-21 00:19 | -20.66227 | -70.25877 | 34037 ft | 397 kts | 352° |
| 2026-04-21 00:20 | -20.60700 | -70.26107 | 34026 ft | 396 kts | 349° |
| 2026-04-21 00:20 | -20.58051 | -70.26725 | 34029 ft | 385 kts | 333° |
| 2026-04-21 00:20 | -20.55745 | -70.28089 | 34025 ft | 377 kts | 317° |
| 2026-04-21 00:20 | -20.53946 | -70.30042 | 34027 ft | 372 kts | 302° |
| 2026-04-21 00:21 | -20.52735 | -70.32466 | 34032 ft | 371 kts | 288° |
| 2026-04-21 00:21 | -20.52215 | -70.35151 | 34037 ft | 372 kts | 273° |
| 2026-04-21 00:21 | -20.52431 | -70.37903 | 34046 ft | 376 kts | 258° |
| 2026-04-21 00:21 | -20.53385 | -70.40515 | 34046 ft | 383 kts | 243° |
| 2026-04-21 00:22 | -20.55035 | -70.42772 | 34046 ft | 392 kts | 227° |
| 2026-04-21 00:22 | -20.57301 | -70.44448 | 34050 ft | 403 kts | 210° |
| 2026-04-21 00:22 | -20.60018 | -70.45325 | 34049 ft | 416 kts | 191° |
| 2026-04-21 00:23 | -20.65879 | -70.45554 | 34052 ft | 424 kts | 185° |
| 2026-04-21 00:23 | -20.71706 | -70.44486 | 34055 ft | 440 kts | 155° |
| 2026-04-21 00:23 | -20.74197 | -70.42561 | 34055 ft | 448 kts | 135° |
| 2026-04-21 00:24 | -20.76022 | -70.39852 | 34052 ft | 453 kts | 114° |
| 2026-04-21 00:24 | -20.76899 | -70.36632 | 34053 ft | 452 kts | 92° |
| 2026-04-21 00:24 | -20.76685 | -70.33309 | 34053 ft | 446 kts | 70° |
| 2026-04-21 00:24 | -20.75465 | -70.30360 | 34049 ft | 436 kts | 49° |
| 2026-04-21 00:25 | -20.73434 | -70.28038 | 34049 ft | 423 kts | 30° |
| 2026-04-21 00:25 | -20.70896 | -70.26565 | 34041 ft | 410 kts | 11° |
| 2026-04-21 00:25 | -20.68147 | -70.26002 | 34042 ft | 399 kts | 357° |
| 2026-04-21 00:26 | -20.62608 | -70.25885 | 34034 ft | 396 kts | 353° |
| 2026-04-21 00:26 | -20.59872 | -70.26068 | 34024 ft | 389 kts | 342° |
| 2026-04-21 00:26 | -20.57359 | -70.26997 | 34035 ft | 380 kts | 327° |
| 2026-04-21 00:26 | -20.55216 | -70.28600 | 34035 ft | 374 kts | 313° |
| 2026-04-21 00:27 | -20.53577 | -70.30722 | 34044 ft | 370 kts | 298° |
| 2026-04-21 00:27 | -20.52564 | -70.33224 | 34037 ft | 369 kts | 284° |
| 2026-04-21 00:27 | -20.52264 | -70.35945 | 34042 ft | 371 kts | 268° |
| 2026-04-21 00:27 | -20.52708 | -70.38664 | 34045 ft | 376 kts | 253° |
| 2026-04-21 00:28 | -20.53884 | -70.41182 | 34041 ft | 384 kts | 238° |
| 2026-04-21 00:28 | -20.55745 | -70.43264 | 34045 ft | 394 kts | 221° |
| 2026-04-21 00:28 | -20.58179 | -70.44693 | 34050 ft | 406 kts | 204° |
| 2026-04-21 00:28 | -20.60986 | -70.45283 | 34049 ft | 418 kts | 188° |
| 2026-04-21 00:29 | -20.63904 | -70.45405 | 34047 ft | 421 kts | 186° |
| 2026-04-21 00:29 | -20.69756 | -70.45107 | 34050 ft | 431 kts | 169° |
| 2026-04-21 00:29 | -20.72527 | -70.43831 | 34058 ft | 441 kts | 149° |
| 2026-04-21 00:30 | -20.74837 | -70.41628 | 34058 ft | 449 kts | 128° |
| 2026-04-21 00:30 | -20.76364 | -70.38725 | 34057 ft | 452 kts | 107° |
| 2026-04-21 00:30 | -20.76876 | -70.35437 | 34055 ft | 449 kts | 84° |
| 2026-04-21 00:30 | -20.76294 | -70.32202 | 34053 ft | 441 kts | 63° |
| 2026-04-21 00:31 | -20.74756 | -70.29425 | 34048 ft | 430 kts | 42° |
| 2026-04-21 00:31 | -20.72523 | -70.27387 | 34046 ft | 417 kts | 23° |
| 2026-04-21 00:31 | -20.69893 | -70.26240 | 34040 ft | 404 kts | 5° |
| 2026-04-21 00:32 | -20.64407 | -70.25856 | 34036 ft | 396 kts | 354° |
| 2026-04-21 00:32 | -20.58958 | -70.26307 | 34028 ft | 385 kts | 336° |
| 2026-04-21 00:32 | -20.56560 | -70.27491 | 34027 ft | 377 kts | 322° |
| 2026-04-21 00:33 | -20.54581 | -70.29293 | 34029 ft | 372 kts | 308° |
| 2026-04-21 00:33 | -20.53153 | -70.31572 | 34030 ft | 370 kts | 293° |
| 2026-04-21 00:33 | -20.52391 | -70.34179 | 34030 ft | 370 kts | 278° |
| 2026-04-21 00:33 | -20.52363 | -70.36923 | 34038 ft | 373 kts | 263° |
| 2026-04-21 00:34 | -20.53086 | -70.39597 | 34049 ft | 379 kts | 248° |
| 2026-04-21 00:34 | -20.54528 | -70.41975 | 34042 ft | 388 kts | 232° |
| 2026-04-21 00:34 | -20.56622 | -70.43844 | 34049 ft | 399 kts | 214° |
| 2026-04-21 00:34 | -20.59226 | -70.44969 | 34050 ft | 412 kts | 197° |
| 2026-04-21 00:35 | -20.62069 | -70.45288 | 34061 ft | 420 kts | 188° |
| 2026-04-21 00:35 | -20.67951 | -70.45311 | 34056 ft | 425 kts | 182° |
| 2026-04-21 00:35 | -20.70869 | -70.44679 | 34054 ft | 435 kts | 161° |
| 2026-04-21 00:36 | -20.73492 | -70.43018 | 34056 ft | 444 kts | 141° |
| 2026-04-21 00:36 | -20.75526 | -70.40512 | 34058 ft | 450 kts | 120° |
| 2026-04-21 00:36 | -20.76678 | -70.37413 | 34058 ft | 451 kts | 98° |
| 2026-04-21 00:36 | -20.76749 | -70.34093 | 34054 ft | 446 kts | 76° |
| 2026-04-21 00:37 | -20.75777 | -70.31039 | 34053 ft | 437 kts | 54° |
| 2026-04-21 00:37 | -20.73910 | -70.28501 | 34047 ft | 425 kts | 34° |
| 2026-04-21 00:37 | -20.71518 | -70.26833 | 34043 ft | 411 kts | 16° |
| 2026-04-21 00:37 | -20.68802 | -70.26057 | 34041 ft | 398 kts | 359° |
| 2026-04-21 00:38 | -20.66041 | -70.25883 | 34032 ft | 397 kts | 355° |
| 2026-04-21 00:38 | -20.60543 | -70.25970 | 34025 ft | 392 kts | 347° |
| 2026-04-21 00:38 | -20.57955 | -70.26697 | 34025 ft | 381 kts | 330° |
| 2026-04-21 00:39 | -20.55713 | -70.28154 | 34030 ft | 375 kts | 316° |
| 2026-04-21 00:39 | -20.53944 | -70.30168 | 34030 ft | 371 kts | 302° |
| 2026-04-21 00:39 | -20.52777 | -70.32601 | 34029 ft | 369 kts | 287° |
| 2026-04-21 00:39 | -20.52316 | -70.35288 | 34038 ft | 371 kts | 272° |
| 2026-04-21 00:40 | -20.52607 | -70.38029 | 34047 ft | 376 kts | 257° |
| 2026-04-21 00:40 | -20.53633 | -70.40607 | 34047 ft | 383 kts | 241° |
| 2026-04-21 00:40 | -20.55359 | -70.42806 | 34047 ft | 393 kts | 225° |
| 2026-04-21 00:40 | -20.57688 | -70.44387 | 34053 ft | 404 kts | 207° |
| 2026-04-21 00:41 | -20.60442 | -70.45141 | 34057 ft | 416 kts | 190° |
| 2026-04-21 00:41 | -20.66245 | -70.45309 | 34055 ft | 422 kts | 184° |
| 2026-04-21 00:41 | -20.69187 | -70.45134 | 34052 ft | 427 kts | 173° |
| 2026-04-21 00:42 | -20.72010 | -70.44060 | 34060 ft | 438 kts | 153° |
| 2026-04-21 00:42 | -20.74417 | -70.42036 | 34058 ft | 446 kts | 133° |
| 2026-04-21 00:42 | -20.76106 | -70.39255 | 34056 ft | 449 kts | 111° |
| 2026-04-21 00:42 | -20.76810 | -70.36023 | 34053 ft | 448 kts | 89° |
| 2026-04-21 00:43 | -20.76434 | -70.32762 | 34056 ft | 441 kts | 67° |
| 2026-04-21 00:43 | -20.75075 | -70.29879 | 34048 ft | 430 kts | 46° |
| 2026-04-21 00:43 | -20.72967 | -70.27694 | 34043 ft | 417 kts | 26° |
| 2026-04-21 00:43 | -20.70404 | -70.26391 | 34042 ft | 404 kts | 8° |
| 2026-04-21 00:44 | -20.67663 | -70.25959 | 34042 ft | 396 kts | 357° |
| 2026-04-21 00:44 | -20.62168 | -70.25891 | 34028 ft | 393 kts | 353° |
| 2026-04-21 00:45 | -20.57026 | -70.27223 | 34028 ft | 376 kts | 324° |
| 2026-04-21 00:45 | -20.54975 | -70.28914 | 34028 ft | 371 kts | 310° |
| 2026-04-21 00:45 | -20.53446 | -70.31107 | 34039 ft | 368 kts | 296° |
| 2026-04-21 00:45 | -20.52570 | -70.33661 | 34037 ft | 368 kts | 281° |
| 2026-04-21 00:46 | -20.52415 | -70.36353 | 34039 ft | 371 kts | 266° |
| 2026-04-21 00:46 | -20.52733 | -70.38186 | 34046 ft | 375 kts | 255° |
| 2026-04-21 00:46 | -20.54342 | -70.41474 | 34049 ft | 386 kts | 234° |
| 2026-04-21 00:46 | -20.56340 | -70.43432 | 34054 ft | 397 kts | 217° |
| 2026-04-21 00:47 | -20.58876 | -70.44675 | 34065 ft | 409 kts | 199° |
| 2026-04-21 00:47 | -20.61733 | -70.45074 | 34063 ft | 419 kts | 188° |
| 2026-04-21 00:47 | -20.66595 | -70.45133 | 34055 ft | 422 kts | 184° |
| 2026-04-21 00:48 | -20.69541 | -70.44891 | 34052 ft | 429 kts | 170° |
| 2026-04-21 00:48 | -20.72334 | -70.43681 | 34060 ft | 439 kts | 150° |
| 2026-04-21 00:48 | -20.74658 | -70.41536 | 34059 ft | 447 kts | 129° |
| 2026-04-21 00:48 | -20.76215 | -70.38671 | 34060 ft | 449 kts | 108° |
| 2026-04-21 00:49 | -20.76776 | -70.35406 | 33926 ft | 445 kts | 86° |